Sea Adventure 80 — WDF3541 — position and weather

sailwx.info

Track history (hours):
 
Tides and Currents Weather Stations Pressure Air Temp Water Temp Dewpoint Dewpoint Depression Visibility Wind Speed Wind Dir Waves Ship Positions

Sea Adventure 80

Owner: McLangLLC, San Diego, CA. More information available from US FCC via Universal Licensing System and Coast Guard Vessel Documentation Center.

Last reported at 2017-Sep-27 21:09 UTC. Time now 2017-Nov-24 09:37 UTC.
Position N 32°29' W 117°19'.
Warning: this ship's position is 57 days out of date.

Length 22 m.

Type: Wing in ground effect craft. MMSI: 367441140.

Date/timePositionNaut miles runAvg speedWind from/ knotsBaromVisibWave heightAir tempDewpointWater temp
2017-Sep-27 21:09N 32°29' W 117°19'1 7.7
2017-Sep-27 21:00N 32°29' W 117°18'4 7.9
2017-Sep-27 20:30N 32°32' W 117°15'4 7.6
2017-Sep-27 20:00N 32°36' W 117°14'4 8.7
2017-Sep-27 19:30N 32°40' W 117°14'2 3.4
2017-Sep-27 19:00N 32°42' W 117°14'0 0.0
2017-Sep-27 18:30N 32°42' W 117°14'2 3.0
2017-Sep-27 18:00N 32°43' W 117°13'1 1.3
2017-Sep-27 17:30N 32°43' W 117°14'0 0.0
2017-Sep-27 17:00N 32°43' W 117°14'0 0.0
2017-Sep-27 16:30N 32°43' W 117°14'0 0.0
2017-Sep-25 14:54N 32°43' W 117°14'0 0.0
2017-Sep-25 14:30N 32°43' W 117°14'0 0.2
2017-Sep-25 14:00N 32°43' W 117°14'0 0.2
2017-Sep-25 13:30N 32°43' W 117°14'0 0.3
2017-Sep-25 13:01N 32°43' W 117°13'2 3.7
2017-Sep-25 12:31N 32°42' W 117°14'0 0.1
2017-Sep-25 12:00N 32°42' W 117°14'0 0.0
2017-Sep-25 11:30N 32°42' W 117°14'0 0.0
2017-Sep-25 11:00N 32°42' W 117°14'0 0.1
2017-Sep-25 10:31N 32°42' W 117°14'0 0.0
2017-Sep-25 10:00N 32°42' W 117°14'0 0.0
2017-Sep-25 09:30N 32°42' W 117°14'0 0.1
2017-Sep-25 09:01N 32°42' W 117°14'0 0.0
2017-Sep-25 08:30N 32°42' W 117°14'0 0.0
2017-Sep-25 08:00N 32°42' W 117°14'0 0.0
2017-Sep-25 07:31N 32°42' W 117°14'0 0.0
2017-Sep-25 07:00N 32°42' W 117°14'0 0.2
2017-Sep-25 06:30N 32°42' W 117°14'3 5.9
2017-Sep-25 06:00N 32°39' W 117°14'3 6.1
2017-Sep-25 05:30N 32°36' W 117°15'3 6.0
2017-Sep-25 05:01N 32°33' W 117°16'3 5.6
2017-Sep-25 04:31N 32°30' W 117°16'4 5.7
2017-Sep-25 03:53N 32°27' W 117°16'2 5.4
2017-Sep-25 03:29N 32°24' W 117°17'3 5.5
2017-Sep-25 03:00N 32°22' W 117°17'3 6.2
2017-Sep-25 02:30N 32°19' W 117°19'2 3.9
2017-Sep-25 02:01N 32°18' W 117°21'5 7.4
2017-Sep-25 01:18N 32°23' W 117°25'2 6.2
2017-Sep-25 01:00N 32°24' W 117°27'2 3.0
2017-Sep-25 00:30N 32°25' W 117°28'4 7.6
2017-Sep-25 00:00N 32°27' W 117°32'3 5.1
2017-Sep-24 23:30N 32°28' W 117°34'2 4.2
2017-Sep-24 23:00N 32°27' W 117°37'2 4.4
2017-Sep-24 22:30N 32°25' W 117°38'4 7.3
2017-Sep-24 22:00N 32°23' W 117°35'1 2.1
2017-Sep-24 21:30N 32°23' W 117°34'1 1.3
2017-Sep-24 21:00N 32°22' W 117°34'0 0.8
2017-Sep-24 20:30N 32°22' W 117°33'3 6.5
2017-Sep-24 20:00N 32°20' W 117°31'3 5.3
2017-Sep-24 19:30N 32°18' W 117°28'2 4.9
2017-Sep-24 19:00N 32°16' W 117°26'4 7.1
2017-Sep-24 18:30N 32°16' W 117°22'3 6.3
2017-Sep-24 18:00N 32°13' W 117°20'5 2.6
2017-Sep-24 16:09N 32°15' W 117°25'1 4.0
2017-Sep-24 16:00N 32°14' W 117°25'2 4.6
2017-Sep-24 15:30N 32°14' W 117°22'2 2.4
2017-Sep-24 14:31N 32°12' W 117°21'23 3.2
2017-Sep-24 07:17N 32°34' W 117°16'2 7.3
2017-Sep-24 07:00N 32°36' W 117°15'4 7.5
2017-Sep-24 06:30N 32°40' W 117°14'2 3.7
2017-Sep-24 06:01N 32°42' W 117°14'0 0.0
2017-Sep-24 05:30N 32°42' W 117°14'2 3.6
2017-Sep-24 05:00N 32°43' W 117°13'0 0.7
2017-Sep-24 04:30N 32°43' W 117°14'0 0.0
2017-Sep-24 04:00N 32°43' W 117°14'0 0.0
2017-Sep-24 03:30N 32°43' W 117°14'1 1.4
2017-Sep-24 03:00N 32°43' W 117°13'1 2.0
2017-Sep-24 02:30N 32°42' W 117°14'3 6.6
2017-Sep-24 02:00N 32°39' W 117°13'3 6.2
2017-Sep-24 01:29N 32°36' W 117°12'  
Track history (hours):
 
Tides and Currents Weather Stations Pressure Air Temp Water Temp Dewpoint Dewpoint Depression Visibility Wind Speed Wind Dir Waves Ship Positions

Sea Adventure 80

Owner: McLangLLC, San Diego, CA. More information available from US FCC via Universal Licensing System and Coast Guard Vessel Documentation Center.

Last reported at 2017-Sep-27 21:09 UTC. Time now 2017-Nov-24 09:37 UTC.
Position N 32°29' W 117°19'.
Warning: this ship's position is 57 days out of date.

Length 22 m.

Type: Wing in ground effect craft. MMSI: 367441140.

Date/timePositionNaut miles runAvg speedWind from/ knotsBaromVisibWave heightAir tempDewpointWater temp
2017-Sep-27 21:09N 32°29' W 117°19'1 7.7
2017-Sep-27 21:00N 32°29' W 117°18'4 7.9
2017-Sep-27 20:30N 32°32' W 117°15'4 7.6
2017-Sep-27 20:00N 32°36' W 117°14'4 8.7
2017-Sep-27 19:30N 32°40' W 117°14'2 3.4
2017-Sep-27 19:00N 32°42' W 117°14'0 0.0
2017-Sep-27 18:30N 32°42' W 117°14'2 3.0
2017-Sep-27 18:00N 32°43' W 117°13'1 1.3
2017-Sep-27 17:30N 32°43' W 117°14'0 0.0
2017-Sep-27 17:00N 32°43' W 117°14'0 0.0
2017-Sep-27 16:30N 32°43' W 117°14'0 0.0
2017-Sep-25 14:54N 32°43' W 117°14'0 0.0
2017-Sep-25 14:30N 32°43' W 117°14'0 0.2
2017-Sep-25 14:00N 32°43' W 117°14'0 0.2
2017-Sep-25 13:30N 32°43' W 117°14'0 0.3
2017-Sep-25 13:01N 32°43' W 117°13'2 3.7
2017-Sep-25 12:31N 32°42' W 117°14'0 0.1
2017-Sep-25 12:00N 32°42' W 117°14'0 0.0
2017-Sep-25 11:30N 32°42' W 117°14'0 0.0
2017-Sep-25 11:00N 32°42' W 117°14'0 0.1
2017-Sep-25 10:31N 32°42' W 117°14'0 0.0
2017-Sep-25 10:00N 32°42' W 117°14'0 0.0
2017-Sep-25 09:30N 32°42' W 117°14'0 0.1
2017-Sep-25 09:01N 32°42' W 117°14'0 0.0
2017-Sep-25 08:30N 32°42' W 117°14'0 0.0
2017-Sep-25 08:00N 32°42' W 117°14'0 0.0
2017-Sep-25 07:31N 32°42' W 117°14'0 0.0
2017-Sep-25 07:00N 32°42' W 117°14'0 0.2
2017-Sep-25 06:30N 32°42' W 117°14'3 5.9
2017-Sep-25 06:00N 32°39' W 117°14'3 6.1
2017-Sep-25 05:30N 32°36' W 117°15'3 6.0
2017-Sep-25 05:01N 32°33' W 117°16'3 5.6
2017-Sep-25 04:31N 32°30' W 117°16'4 5.7
2017-Sep-25 03:53N 32°27' W 117°16'2 5.4
2017-Sep-25 03:29N 32°24' W 117°17'3 5.5
2017-Sep-25 03:00N 32°22' W 117°17'3 6.2
2017-Sep-25 02:30N 32°19' W 117°19'2 3.9
2017-Sep-25 02:01N 32°18' W 117°21'5 7.4
2017-Sep-25 01:18N 32°23' W 117°25'2 6.2
2017-Sep-25 01:00N 32°24' W 117°27'2 3.0
2017-Sep-25 00:30N 32°25' W 117°28'4 7.6
2017-Sep-25 00:00N 32°27' W 117°32'3 5.1
2017-Sep-24 23:30N 32°28' W 117°34'2 4.2
2017-Sep-24 23:00N 32°27' W 117°37'2 4.4
2017-Sep-24 22:30N 32°25' W 117°38'4 7.3
2017-Sep-24 22:00N 32°23' W 117°35'1 2.1
2017-Sep-24 21:30N 32°23' W 117°34'1 1.3
2017-Sep-24 21:00N 32°22' W 117°34'0 0.8
2017-Sep-24 20:30N 32°22' W 117°33'3 6.5
2017-Sep-24 20:00N 32°20' W 117°31'3 5.3
2017-Sep-24 19:30N 32°18' W 117°28'2 4.9
2017-Sep-24 19:00N 32°16' W 117°26'4 7.1
2017-Sep-24 18:30N 32°16' W 117°22'3 6.3
2017-Sep-24 18:00N 32°13' W 117°20'5 2.6
2017-Sep-24 16:09N 32°15' W 117°25'1 4.0
2017-Sep-24 16:00N 32°14' W 117°25'2 4.6
2017-Sep-24 15:30N 32°14' W 117°22'2 2.4
2017-Sep-24 14:31N 32°12' W 117°21'23 3.2
2017-Sep-24 07:17N 32°34' W 117°16'2 7.3
2017-Sep-24 07:00N 32°36' W 117°15'4 7.5
2017-Sep-24 06:30N 32°40' W 117°14'2 3.7
2017-Sep-24 06:01N 32°42' W 117°14'0 0.0
2017-Sep-24 05:30N 32°42' W 117°14'2 3.6
2017-Sep-24 05:00N 32°43' W 117°13'0 0.7
2017-Sep-24 04:30N 32°43' W 117°14'0 0.0
2017-Sep-24 04:00N 32°43' W 117°14'0 0.0
2017-Sep-24 03:30N 32°43' W 117°14'1 1.4
2017-Sep-24 03:00N 32°43' W 117°13'1 2.0
2017-Sep-24 02:30N 32°42' W 117°14'3 6.6
2017-Sep-24 02:00N 32°39' W 117°13'3 6.2
2017-Sep-24 01:29N 32°36' W 117°12'  

Dump ship's entire track history